Time;durP1;ratioP1;P1;durP2;ratioP2;P2;SDS_P1;SDS_P2;PMS_P1;PMS_P2;Temp;Humidity;BMP_temperature;BMP_pressure;BME280_temperature;BME280_humidity;BME280_pressure;Samples;Min_cycle;Max_cycle;Signal;HPM_P1;HPM_P2
2023/07/15 00:01:19;;;;;;;6.32;5.22;;;19.90;99.90;;;;;;5052214;28;20143;-74
2023/07/15 00:03:47;;;;;;;7.00;5.00;;;19.90;99.90;;;;;;5052317;28;20045;-73
2023/07/15 00:06:13;;;;;;;5.40;4.80;;;19.80;99.90;;;;;;5034561;28;20370;-73
2023/07/15 00:08:38;;;;;;;6.18;5.57;;;19.80;99.90;;;;;;5052090;28;20049;-73
2023/07/15 00:11:05;;;;;;;6.78;4.93;;;19.80;99.90;;;;;;5052032;28;20052;-73
2023/07/15 00:13:31;;;;;;;6.43;5.25;;;19.70;99.90;;;;;;5052189;28;20049;-73
2023/07/15 00:15:57;;;;;;;6.05;5.30;;;19.70;99.90;;;;;;5034570;28;20064;-73
2023/07/15 00:18:23;;;;;;;6.20;5.28;;;19.70;99.90;;;;;;5034183;28;20045;-73
2023/07/15 00:20:49;;;;;;;6.97;5.60;;;19.70;99.90;;;;;;5051883;28;20115;-73
2023/07/15 00:23:26;;;;;;;6.40;4.38;;;19.60;99.90;;;;;;5051823;28;20041;-73
2023/07/15 00:25:53;;;;;;;5.47;4.97;;;19.60;99.90;;;;;;5033878;28;20045;-72
2023/07/15 00:28:20;;;;;;;5.90;5.25;;;19.50;99.90;;;;;;5052584;28;20088;-73
2023/07/15 00:30:48;;;;;;;5.80;4.90;;;19.50;99.90;;;;;;5034704;28;20423;-72
2023/07/15 00:33:14;;;;;;;5.53;4.95;;;19.50;99.90;;;;;;5052240;28;20041;-73
2023/07/15 00:35:41;;;;;;;6.13;5.15;;;19.40;99.90;;;;;;5052120;28;20055;-73
2023/07/15 00:38:07;;;;;;;7.07;5.40;;;19.40;99.90;;;;;;5051813;28;20049;-73
2023/07/15 00:40:38;;;;;;;5.72;5.13;;;19.40;99.90;;;;;;5051812;28;20041;-72
2023/07/15 00:43:41;;;;;;;8.10;4.60;;;19.30;99.90;;;;;;5051640;28;20145;-72
2023/07/15 00:46:23;;;;;;;5.80;4.63;;;19.30;99.90;;;;;;5051629;28;20049;-72
2023/07/15 00:48:53;;;;;;;5.82;4.85;;;19.30;99.90;;;;;;5034852;28;20049;-73
2023/07/15 00:51:19;;;;;;;5.28;4.03;;;19.30;99.90;;;;;;5051309;28;20405;-73
2023/07/15 00:53:45;;;;;;;5.47;4.30;;;19.30;99.90;;;;;;5055310;28;20049;-72
2023/07/15 00:56:11;;;;;;;4.68;3.97;;;19.30;99.90;;;;;;5055564;28;20513;-73
2023/07/15 00:58:37;;;;;;;7.05;4.90;;;19.30;99.90;;;;;;5055277;28;20128;-72
2023/07/15 01:01:03;;;;;;;7.40;4.63;;;19.30;99.90;;;;;;5055128;28;20099;-73
2023/07/15 01:03:29;;;;;;;4.63;3.95;;;19.30;99.90;;;;;;5055810;28;20049;-73
2023/07/15 01:05:55;;;;;;;6.78;4.50;;;19.30;99.90;;;;;;5055801;28;20507;-72
2023/07/15 01:08:21;;;;;;;4.85;4.25;;;19.40;99.90;;;;;;5055080;28;20041;-72
2023/07/15 01:10:47;;;;;;;5.38;4.45;;;19.40;99.90;;;;;;5055553;28;20527;-72
2023/07/15 01:13:13;;;;;;;4.03;3.63;;;19.40;99.90;;;;;;5055363;28;20076;-73
2023/07/15 01:15:38;;;;;;;4.60;4.13;;;19.40;99.90;;;;;;5055016;28;20080;-72
2023/07/15 01:18:04;;;;;;;7.85;4.00;;;19.50;99.90;;;;;;5055532;28;20045;-72
2023/07/15 01:20:32;;;;;;;5.70;3.72;;;19.50;99.90;;;;;;5055345;28;20052;-72
2023/07/15 01:22:58;;;;;;;6.43;4.43;;;19.50;99.90;;;;;;5054920;28;20056;-72
2023/07/15 01:25:23;;;;;;;5.65;3.83;;;19.50;99.90;;;;;;5054770;28;20498;-72
2023/07/15 01:27:49;;;;;;;4.22;3.70;;;19.50;99.90;;;;;;5054991;28;20051;-72
2023/07/15 01:30:15;;;;;;;5.50;3.70;;;19.60;99.90;;;;;;5055076;28;20197;-72
2023/07/15 01:32:41;;;;;;;4.60;4.07;;;19.60;99.90;;;;;;5054794;28;20071;-73
2023/07/15 01:35:07;;;;;;;4.47;4.07;;;19.60;99.90;;;;;;5055300;28;20148;-72
2023/07/15 01:37:33;;;;;;;6.55;4.55;;;19.60;99.90;;;;;;5055019;28;20049;-72
2023/07/15 01:39:58;;;;;;;5.22;4.15;;;19.70;99.90;;;;;;5055322;28;20052;-72
2023/07/15 01:42:24;;;;;;;4.05;3.50;;;19.70;99.90;;;;;;5054350;28;20412;-72
2023/07/15 01:44:50;;;;;;;4.63;4.05;;;19.70;99.90;;;;;;5054821;28;20077;-72
2023/07/15 01:47:15;;;;;;;9.15;3.90;;;19.80;99.90;;;;;;5054611;28;20481;-72
2023/07/15 01:49:42;;;;;;;3.95;3.55;;;19.80;99.90;;;;;;5054860;28;20487;-72
2023/07/15 01:52:08;;;;;;;5.50;3.78;;;19.80;99.90;;;;;;5020464;28;20420;-72
2023/07/15 01:54:34;;;;;;;5.53;4.00;;;19.80;99.90;;;;;;5054352;28;20064;-72
2023/07/15 01:57:00;;;;;;;5.18;3.92;;;19.80;99.90;;;;;;5054735;28;20045;-72
2023/07/15 01:59:25;;;;;;;4.85;3.80;;;19.90;99.90;;;;;;5053942;28;20041;-72
2023/07/15 02:01:55;;;;;;;4.90;3.53;;;20.00;99.90;;;;;;5054195;28;20076;-74
2023/07/15 02:04:20;;;;;;;5.20;3.58;;;19.90;99.90;;;;;;5053147;28;20102;-73
2023/07/15 02:06:46;;;;;;;5.82;3.72;;;20.00;99.90;;;;;;5054609;28;20041;-73
2023/07/15 02:09:12;;;;;;;3.92;2.90;;;19.90;99.90;;;;;;5054522;28;20036;-73
2023/07/15 02:11:38;;;;;;;5.15;3.70;;;20.20;99.90;;;;;;5054151;28;20383;-72
2023/07/15 02:14:04;;;;;;;4.03;3.20;;;20.30;99.90;;;;;;5053996;28;20044;-73
2023/07/15 02:16:29;;;;;;;4.32;3.10;;;20.40;99.90;;;;;;5036518;28;20080;-73
2023/07/15 02:18:55;;;;;;;4.57;3.50;;;20.50;99.70;;;;;;5036616;28;20064;-73
2023/07/15 02:21:24;;;;;;;5.28;2.80;;;20.60;99.40;;;;;;5054056;28;20175;-73
2023/07/15 02:23:53;;;;;;;8.13;3.45;;;20.60;99.20;;;;;;5036579;28;20068;-73
2023/07/15 02:26:19;;;;;;;3.75;3.15;;;20.70;98.90;;;;;;5036726;28;20045;-73
2023/07/15 02:28:46;;;;;;;4.82;3.03;;;20.70;98.80;;;;;;5036265;28;20134;-73
2023/07/15 02:31:11;;;;;;;2.92;2.70;;;20.70;98.60;;;;;;5053687;28;20052;-73
2023/07/15 02:33:38;;;;;;;5.85;3.20;;;20.70;98.60;;;;;;5054131;28;20096;-74
2023/07/15 02:36:04;;;;;;;4.20;2.92;;;20.70;98.50;;;;;;5053964;28;20048;-75
2023/07/15 02:38:31;;;;;;;3.10;2.60;;;20.70;98.50;;;;;;5053496;28;20091;-74
2023/07/15 02:40:57;;;;;;;4.50;2.92;;;20.70;98.40;;;;;;5035850;28;20111;-78
2023/07/15 02:43:22;;;;;;;4.43;3.17;;;20.70;98.30;;;;;;5053433;28;20045;-79
2023/07/15 02:45:51;;;;;;;3.03;2.72;;;20.70;98.20;;;;;;5053777;28;20040;-77
2023/07/15 02:48:21;;;;;;;4.05;2.75;;;20.70;98.00;;;;;;5053605;28;20098;-74
2023/07/15 02:50:53;;;;;;;3.35;2.95;;;20.70;98.00;;;;;;5053540;28;20045;-76
2023/07/15 02:53:19;;;;;;;6.45;3.03;;;20.70;98.00;;;;;;5053179;28;20064;-77
2023/07/15 02:55:45;;;;;;;7.10;3.03;;;20.70;98.00;;;;;;5019071;28;20397;-78
2023/07/15 02:58:13;;;;;;;7.25;3.28;;;20.80;97.80;;;;;;5035562;28;20518;-76
2023/07/15 03:00:39;;;;;;;4.65;3.10;;;20.80;97.60;;;;;;5052806;28;20085;-76
2023/07/15 03:03:04;;;;;;;4.20;2.75;;;20.80;97.60;;;;;;5053957;28;20103;-73
2023/07/15 03:05:32;;;;;;;4.80;3.00;;;20.80;97.50;;;;;;5053041;28;20080;-75
2023/07/15 03:07:57;;;;;;;5.10;3.47;;;20.70;97.50;;;;;;5052885;28;20366;-75
2023/07/15 03:10:23;;;;;;;3.13;2.83;;;20.70;97.70;;;;;;5035529;28;20099;-78
2023/07/15 03:12:49;;;;;;;6.07;3.33;;;20.60;97.80;;;;;;5035686;28;20466;-76
2023/07/15 03:15:15;;;;;;;4.07;3.65;;;20.50;97.80;;;;;;5035121;28;20053;-74
2023/07/15 03:17:41;;;;;;;4.63;2.92;;;20.50;97.80;;;;;;5035873;28;20044;-73
2023/07/15 03:20:14;;;;;;;3.85;2.97;;;20.40;98.00;;;;;;5052828;28;20055;-75
2023/07/15 03:22:41;;;;;;;4.20;3.08;;;20.40;98.10;;;;;;5053118;28;20036;-74
2023/07/15 03:25:07;;;;;;;4.18;2.78;;;20.30;98.10;;;;;;5052787;28;20045;-75
2023/07/15 03:27:32;;;;;;;4.15;2.90;;;20.30;98.30;;;;;;5035155;28;20076;-75
2023/07/15 03:29:58;;;;;;;3.55;3.08;;;20.20;98.40;;;;;;5052770;28;20463;-75
2023/07/15 03:32:24;;;;;;;4.75;2.90;;;20.20;98.40;;;;;;5035428;28;20056;-78
2023/07/15 03:34:50;;;;;;;3.50;3.05;;;20.10;98.30;;;;;;5052715;28;20049;-74
2023/07/15 03:37:15;;;;;;;7.63;3.08;;;20.20;98.40;;;;;;5035317;28;20384;-76
2023/07/15 03:39:41;;;;;;;4.25;2.72;;;20.10;98.50;;;;;;5052572;28;20124;-75
2023/07/15 03:42:07;;;;;;;3.75;2.80;;;20.10;98.50;;;;;;5052730;28;20102;-75
2023/07/15 03:44:33;;;;;;;6.43;3.08;;;20.00;98.60;;;;;;5034794;28;20041;-77
2023/07/15 03:46:59;;;;;;;3.30;3.00;;;20.00;98.60;;;;;;5052347;28;20041;-74
2023/07/15 03:49:24;;;;;;;3.95;2.78;;;20.00;98.70;;;;;;5052551;28;20124;-74
2023/07/15 03:51:50;;;;;;;4.78;2.90;;;19.90;98.80;;;;;;5035362;28;20049;-76
2023/07/15 03:54:16;;;;;;;3.97;2.85;;;19.90;99.00;;;;;;5052951;28;20049;-75
2023/07/15 03:56:44;;;;;;;4.25;2.97;;;19.90;99.10;;;;;;5035179;28;20110;-74
2023/07/15 03:59:09;;;;;;;6.25;3.22;;;19.80;99.10;;;;;;5035870;28;20083;-76
2023/07/15 04:01:35;;;;;;;8.05;3.58;;;19.80;99.30;;;;;;5034671;28;20057;-75
2023/07/15 04:04:07;;;;;;;6.00;3.00;;;19.80;99.30;;;;;;5052267;28;20473;-77
2023/07/15 04:06:33;;;;;;;3.47;3.13;;;19.80;99.20;;;;;;5052488;28;20045;-78
2023/07/15 04:08:58;;;;;;;3.20;2.50;;;19.80;99.20;;;;;;5034920;28;20407;-75
2023/07/15 04:11:24;;;;;;;2.60;2.20;;;19.70;99.50;;;;;;5052573;28;20045;-76
2023/07/15 04:13:50;;;;;;;3.75;2.78;;;19.70;99.90;;;;;;5034738;28;20124;-73
2023/07/15 04:16:16;;;;;;;3.33;2.45;;;19.70;99.90;;;;;;5034561;28;20052;-78
2023/07/15 04:18:45;;;;;;;4.40;2.80;;;19.70;99.90;;;;;;5052166;28;20119;-76
2023/07/15 04:21:10;;;;;;;4.35;3.30;;;19.70;99.90;;;;;;5052095;28;20127;-73
2023/07/15 04:23:36;;;;;;;4.35;3.35;;;19.70;99.90;;;;;;5034544;28;20057;-75
2023/07/15 04:26:02;;;;;;;7.10;3.40;;;19.70;99.80;;;;;;5052396;28;20045;-74
2023/07/15 04:28:28;;;;;;;3.47;3.10;;;19.70;99.70;;;;;;5037365;28;20052;-75
2023/07/15 04:30:53;;;;;;;5.10;3.50;;;19.70;99.90;;;;;;5038877;28;20086;-76
2023/07/15 04:33:19;;;;;;;3.63;2.67;;;19.70;99.90;;;;;;5038980;28;20389;-78
2023/07/15 04:35:45;;;;;;;3.67;3.22;;;19.80;99.90;;;;;;5056408;28;20096;-77
2023/07/15 04:38:11;;;;;;;4.82;3.42;;;19.80;99.90;;;;;;5056520;28;20087;-77
2023/07/15 04:40:36;;;;;;;4.75;3.10;;;19.80;99.90;;;;;;5038467;28;20528;-80
2023/07/15 04:43:02;;;;;;;3.63;3.33;;;19.80;99.90;;;;;;5055806;28;20363;-75
2023/07/15 04:45:29;;;;;;;4.57;2.80;;;19.80;99.90;;;;;;5055766;28;20068;-75
2023/07/15 04:47:55;;;;;;;5.35;2.85;;;19.90;99.90;;;;;;5038084;28;20497;-74
2023/07/15 04:50:21;;;;;;;4.68;2.97;;;19.90;99.90;;;;;;5055491;28;20048;-75
2023/07/15 04:52:47;;;;;;;5.07;2.92;;;19.90;99.90;;;;;;5038190;28;20144;-76
2023/07/15 04:55:14;;;;;;;5.43;2.85;;;20.00;99.90;;;;;;5055479;28;20154;-75
2023/07/15 04:57:40;;;;;;;5.07;3.03;;;20.10;99.90;;;;;;5055615;28;20048;-76
2023/07/15 05:00:10;;;;;;;3.40;3.20;;;20.10;99.90;;;;;;5055510;28;20041;-77
2023/07/15 05:02:37;;;;;;;4.72;2.75;;;20.20;99.90;;;;;;5056265;28;20061;-77
2023/07/15 05:05:07;;;;;;;3.83;2.70;;;20.30;99.90;;;;;;5055423;28;20049;-76
2023/07/15 05:07:33;;;;;;;4.50;2.38;;;20.30;99.90;;;;;;5038237;28;20045;-76
2023/07/15 05:09:59;;;;;;;3.80;2.70;;;20.40;99.90;;;;;;5055974;28;20095;-75
2023/07/15 05:12:26;;;;;;;3.58;3.00;;;20.40;99.90;;;;;;5055356;28;20091;-75
2023/07/15 05:14:52;;;;;;;3.75;3.15;;;20.30;99.90;;;;;;5055692;28;20045;-76
2023/07/15 05:17:18;;;;;;;5.32;3.10;;;20.40;99.90;;;;;;5055723;28;20040;-78
2023/07/15 05:19:43;;;;;;;3.60;3.30;;;20.40;99.90;;;;;;5055198;28;20484;-75
2023/07/15 05:22:09;;;;;;;3.28;2.80;;;20.50;99.90;;;;;;5055377;28;20064;-77
2023/07/15 05:24:35;;;;;;;4.00;3.65;;;20.50;99.90;;;;;;5037331;28;20144;-74
2023/07/15 05:27:01;;;;;;;3.78;2.67;;;20.60;99.90;;;;;;5055486;28;20048;-73
2023/07/15 05:29:26;;;;;;;4.75;3.03;;;20.70;99.80;;;;;;5055534;28;20489;-73
2023/07/15 05:31:52;;;;;;;3.35;2.67;;;20.70;99.70;;;;;;5055171;28;20537;-75
2023/07/15 05:34:19;;;;;;;3.83;3.05;;;20.80;99.80;;;;;;5037172;28;20418;-76
2023/07/15 05:36:45;;;;;;;3.88;3.10;;;20.90;99.50;;;;;;5054802;28;20504;-77
2023/07/15 05:39:11;;;;;;;3.58;2.60;;;21.00;99.40;;;;;;5035992;28;20053;-73
2023/07/15 05:41:37;;;;;;;4.57;3.05;;;21.00;99.40;;;;;;5054756;28;20050;-73
2023/07/15 05:44:03;;;;;;;5.15;3.45;;;21.10;99.30;;;;;;5054800;28;20052;-72
2023/07/15 05:46:28;;;;;;;4.00;3.03;;;21.20;99.20;;;;;;5054545;28;20045;-77
2023/07/15 05:48:55;;;;;;;3.45;3.03;;;21.30;99.20;;;;;;5054510;28;20099;-75
2023/07/15 05:51:21;;;;;;;5.00;3.28;;;21.30;99.10;;;;;;5054430;28;20049;-78
2023/07/15 05:53:47;;;;;;;4.57;3.20;;;21.40;99.00;;;;;;5054469;28;20041;-75
2023/07/15 05:56:12;;;;;;;5.38;2.88;;;21.50;99.00;;;;;;5054354;28;20045;-78
2023/07/15 05:58:38;;;;;;;5.03;2.83;;;21.60;99.10;;;;;;5054500;28;20063;-73
2023/07/15 06:01:04;;;;;;;4.50;3.30;;;21.70;99.10;;;;;;5053967;28;20402;-78
2023/07/15 06:03:30;;;;;;;6.65;3.28;;;21.80;99.00;;;;;;5054860;28;20126;-75
2023/07/15 06:06:02;;;;;;;2.88;2.53;;;21.90;99.00;;;;;;5054410;28;20045;-73
2023/07/15 06:08:28;;;;;;;6.53;3.25;;;22.00;98.90;;;;;;5054154;28;20097;-74
2023/07/15 06:10:54;;;;;;;4.90;3.60;;;22.10;99.00;;;;;;5053914;28;20469;-77
2023/07/15 06:13:19;;;;;;;4.50;3.47;;;22.20;98.90;;;;;;5036214;28;20040;-74
2023/07/15 06:15:51;;;;;;;7.35;3.25;;;22.30;98.90;;;;;;5054000;28;20134;-74
2023/07/15 06:18:17;;;;;;;4.90;3.17;;;22.50;98.90;;;;;;5036531;28;20045;-74
2023/07/15 06:20:46;;;;;;;5.68;2.95;;;22.70;99.10;;;;;;5036714;28;20279;-75
2023/07/15 06:23:11;;;;;;;4.93;3.10;;;22.80;99.30;;;;;;5053942;28;20049;-73
2023/07/15 06:25:38;;;;;;;4.55;2.67;;;23.00;99.50;;;;;;5053760;28;20114;-73
2023/07/15 06:28:04;;;;;;;3.88;2.40;;;23.20;99.70;;;;;;5053625;28;20080;-79
2023/07/15 06:30:29;;;;;;;4.43;3.03;;;23.60;99.80;;;;;;5053889;28;20044;-74
2023/07/15 06:32:55;;;;;;;7.15;2.90;;;24.10;99.30;;;;;;5054320;28;20102;-75
2023/07/15 06:35:21;;;;;;;4.50;2.80;;;24.50;98.30;;;;;;5054102;28;20041;-81
2023/07/15 06:37:51;;;;;;;5.78;2.78;;;24.70;98.00;;;;;;5019660;28;20087;-77
2023/07/15 06:40:18;;;;;;;5.45;3.20;;;25.20;97.50;;;;;;5053606;28;20051;-76
2023/07/15 06:42:44;;;;;;;3.75;2.63;;;25.60;97.10;;;;;;5053598;28;20124;-81
2023/07/15 06:45:11;;;;;;;4.78;2.33;;;26.20;96.70;;;;;;5053467;28;20052;-77
2023/07/15 06:47:37;;;;;;;5.00;2.45;;;26.80;96.30;;;;;;5053414;28;20048;-77
2023/07/15 06:50:03;;;;;;;3.72;2.63;;;26.90;95.90;;;;;;5034920;28;20094;-81
2023/07/15 06:52:29;;;;;;;2.90;2.53;;;26.90;95.80;;;;;;5053224;28;20049;-76
2023/07/15 06:54:55;;;;;;;2.35;2.15;;;26.70;95.60;;;;;;5053599;28;20052;-75
2023/07/15 06:57:21;;;;;;;2.45;2.25;;;26.80;95.70;;;;;;5053116;28;20327;-77
2023/07/15 06:59:47;;;;;;;5.47;2.80;;;27.20;95.60;;;;;;5053076;28;20080;-78
2023/07/15 07:02:13;;;;;;;4.53;2.45;;;27.30;94.90;;;;;;5053280;28;20100;-76
2023/07/15 07:04:39;;;;;;;5.13;2.22;;;27.10;95.20;;;;;;5053254;28;20048;-78
2023/07/15 07:07:05;;;;;;;3.92;2.13;;;27.40;94.60;;;;;;5019499;28;20472;-76
2023/07/15 07:09:31;;;;;;;4.00;2.15;;;27.80;95.00;;;;;;5035258;28;20409;-78
2023/07/15 07:11:57;;;;;;;5.03;2.17;;;28.70;94.20;;;;;;5053691;28;20048;-81
2023/07/15 07:14:23;;;;;;;4.55;2.17;;;29.40;94.20;;;;;;5053604;28;20072;-73
2023/07/15 07:16:49;;;;;;;2.80;2.00;;;30.00;93.50;;;;;;5052854;28;20454;-76
2023/07/15 07:19:15;;;;;;;5.80;2.72;;;30.00;93.30;;;;;;5052508;28;20049;-79
2023/07/15 07:21:42;;;;;;;4.82;2.25;;;30.50;93.00;;;;;;5053036;28;20048;-75
2023/07/15 07:24:10;;;;;;;5.18;2.72;;;30.70;92.80;;;;;;5053264;28;20084;-75
2023/07/15 07:26:36;;;;;;;7.05;2.25;;;30.80;92.80;;;;;;5035737;28;20057;-74
2023/07/15 07:29:01;;;;;;;3.40;2.10;;;30.50;92.30;;;;;;5035333;28;20505;-75
2023/07/15 07:31:28;;;;;;;4.43;2.40;;;30.50;92.20;;;;;;5053229;28;20096;-79
2023/07/15 07:33:54;;;;;;;4.15;2.10;;;30.70;92.30;;;;;;5035168;28;20401;-76
2023/07/15 07:36:21;;;;;;;3.13;2.13;;;30.90;92.30;;;;;;5052627;28;20072;-75
2023/07/15 07:38:47;;;;;;;3.40;1.90;;;30.80;91.50;;;;;;5035539;28;20079;-80
2023/07/15 07:41:13;;;;;;;1.92;1.70;;;31.20;91.60;;;;;;5053100;28;20045;-77
2023/07/15 07:43:39;;;;;;;3.45;1.88;;;31.30;91.50;;;;;;5018463;28;20059;-77
2023/07/15 07:46:12;;;;;;;4.72;2.60;;;31.30;90.30;;;;;;5059780;28;20052;-85
2023/07/15 07:48:38;;;;;;;4.15;2.10;;;31.40;90.10;;;;;;5042742;28;20052;-85
2023/07/15 07:51:04;;;;;;;3.20;1.95;;;31.40;90.90;;;;;;5024377;28;20045;-84
2023/07/15 07:53:30;;;;;;;2.50;2.10;;;31.60;90.50;;;;;;5022956;28;20132;-85
2023/07/15 07:55:56;;;;;;;3.30;1.95;;;31.70;90.80;;;;;;5053266;28;20062;-83
2023/07/15 07:58:21;;;;;;;2.30;1.90;;;32.10;90.60;;;;;;5035421;28;20450;-83
2023/07/15 08:00:47;;;;;;;3.88;1.65;;;32.50;90.30;;;;;;5052649;28;20128;-83
2023/07/15 08:03:14;;;;;;;2.33;1.98;;;32.20;89.90;;;;;;5033606;28;20128;-83
2023/07/15 08:05:48;;;;;;;3.83;2.78;;;32.10;89.40;;;;;;5053207;28;20124;-83
2023/07/15 08:08:14;;;;;;;2.67;2.00;;;32.60;87.30;;;;;;5052646;28;20073;-84
2023/07/15 08:10:41;;;;;;;4.45;2.25;;;32.90;88.90;;;;;;5035097;28;20346;-83
2023/07/15 08:13:07;;;;;;;3.45;2.20;;;32.90;89.00;;;;;;5053303;28;20048;-83
2023/07/15 08:15:37;;;;;;;5.32;1.90;;;32.40;87.90;;;;;;5035109;28;20086;-83
2023/07/15 08:18:04;;;;;;;2.70;1.83;;;31.60;87.60;;;;;;5018545;28;20051;-85
2023/07/15 08:20:30;;;;;;;4.20;2.22;;;30.50;88.40;;;;;;5034752;28;20485;-82
2023/07/15 08:22:57;;;;;;;2.67;1.90;;;30.10;89.70;;;;;;5034687;28;20052;-78
2023/07/15 08:25:23;;;;;;;4.53;1.88;;;30.20;90.00;;;;;;5052042;28;20057;-76
2023/07/15 08:27:48;;;;;;;3.28;1.95;;;30.50;90.00;;;;;;5052271;28;20047;-78
2023/07/15 08:30:14;;;;;;;6.85;2.25;;;30.40;90.00;;;;;;5052415;28;20049;-77
2023/07/15 08:32:40;;;;;;;4.85;1.88;;;30.40;90.00;;;;;;5052547;28;20045;-75
2023/07/15 08:35:06;;;;;;;3.25;1.70;;;30.20;90.10;;;;;;5052197;28;20522;-79
2023/07/15 08:37:32;;;;;;;2.08;1.67;;;30.50;90.20;;;;;;5052468;28;20504;-77
2023/07/15 08:39:58;;;;;;;8.02;1.85;;;30.20;90.00;;;;;;5051940;28;20110;-79
2023/07/15 08:42:24;;;;;;;7.15;2.10;;;30.20;90.50;;;;;;5051809;28;20049;-77
2023/07/15 08:44:51;;;;;;;3.00;1.95;;;30.70;90.50;;;;;;5052394;28;20084;-80
2023/07/15 08:47:23;;;;;;;2.33;1.65;;;31.00;90.20;;;;;;5051613;28;20041;-78
2023/07/15 08:49:51;;;;;;;3.22;2.00;;;31.60;90.10;;;;;;5051802;28;20049;-76
2023/07/15 08:52:22;;;;;;;2.80;1.50;;;31.90;89.70;;;;;;5051719;28;20056;-76
2023/07/15 08:54:50;;;;;;;5.05;1.95;;;31.60;89.70;;;;;;5052366;28;20049;-79
2023/07/15 08:57:20;;;;;;;2.78;2.33;;;31.20;90.00;;;;;;5052073;28;20401;-77
2023/07/15 08:59:52;;;;;;;4.00;1.60;;;31.10;89.30;;;;;;5051776;28;20041;-77
2023/07/15 09:02:18;;;;;;;;;;;31.00;89.80;;;;;;5052385;28;20064;-80
2023/07/15 09:04:44;;;;;;;2.25;1.90;;;30.70;90.10;;;;;;5052273;28;19920;-77
2023/07/15 09:07:09;;;;;;;3.70;1.90;;;30.80;90.40;;;;;;5052088;28;20481;-80
2023/07/15 09:09:37;;;;;;;2.67;1.65;;;30.80;90.50;;;;;;5033949;28;20395;-75
2023/07/15 09:12:06;;;;;;;5.18;2.38;;;30.60;90.40;;;;;;5051930;28;20049;-80
2023/07/15 09:14:31;;;;;;;2.05;1.75;;;30.40;90.50;;;;;;5054447;28;20037;-81
2023/07/15 09:16:59;;;;;;;2.40;1.95;;;30.50;90.70;;;;;;5055099;28;20110;-79
2023/07/15 09:19:28;;;;;;;2.35;2.00;;;30.80;90.20;;;;;;5055432;28;20049;-78
2023/07/15 09:22:04;;;;;;;1.85;1.75;;;31.40;90.40;;;;;;5037546;28;20056;-78
2023/07/15 09:24:32;;;;;;;3.53;2.58;;;31.40;89.10;;;;;;5055552;28;20045;-77
2023/07/15 09:27:00;;;;;;;2.53;2.33;;;30.70;90.20;;;;;;5054873;28;20090;-74
2023/07/15 09:29:26;;;;;;;2.67;2.05;;;30.70;90.30;;;;;;5055385;28;20357;-74
2023/07/15 09:31:51;;;;;;;5.85;2.47;;;30.90;90.40;;;;;;5055252;28;20159;-76
2023/07/15 09:34:18;;;;;;;2.53;2.17;;;31.10;90.40;;;;;;5037596;28;20056;-74
2023/07/15 09:36:44;;;;;;;3.30;2.30;;;31.80;90.30;;;;;;5054859;28;20045;-73
2023/07/15 09:39:15;;;;;;;2.78;2.10;;;32.40;90.00;;;;;;5054886;28;20128;-78
2023/07/15 09:41:41;;;;;;;2.50;1.83;;;32.30;89.00;;;;;;5037220;28;20045;-74
2023/07/15 09:44:08;;;;;;;4.90;2.25;;;31.90;90.00;;;;;;5037399;28;20087;-78
2023/07/15 09:46:34;;;;;;;3.03;2.25;;;32.10;90.30;;;;;;5021229;28;20049;-80
2023/07/15 09:49:00;;;;;;;2.33;1.85;;;32.30;88.90;;;;;;5054596;28;20132;-73
2023/07/15 09:51:26;;;;;;;2.15;1.98;;;31.70;89.70;;;;;;5054622;28;20128;-73
2023/07/15 09:53:56;;;;;;;2.40;1.80;;;31.30;90.00;;;;;;5054873;28;20037;-75
2023/07/15 09:56:36;;;;;;;2.47;1.90;;;31.30;90.20;;;;;;5020705;28;20126;-80
2023/07/15 09:59:21;;;;;;;2.15;1.75;;;31.30;90.40;;;;;;5054619;28;20059;-78
2023/07/15 10:02:05;;;;;;;5.82;2.28;;;31.00;90.30;;;;;;5054295;28;20052;-78
2023/07/15 10:04:44;;;;;;;3.25;1.75;;;31.50;90.20;;;;;;5054407;28;20103;-73
2023/07/15 10:07:11;;;;;;;4.95;2.50;;;31.70;88.90;;;;;;5054356;28;20499;-80
2023/07/15 10:09:37;;;;;;;2.60;2.40;;;31.90;90.10;;;;;;5054159;28;20048;-78
2023/07/15 10:12:04;;;;;;;2.30;1.83;;;32.10;90.00;;;;;;5054178;28;20072;-75
2023/07/15 10:14:31;;;;;;;2.10;1.85;;;32.60;90.10;;;;;;5036954;28;20420;-75
2023/07/15 10:17:11;;;;;;;2.63;1.90;;;33.00;89.70;;;;;;5054189;28;20045;-76
2023/07/15 10:19:47;;;;;;;1.85;1.65;;;33.10;87.90;;;;;;5054278;28;20045;-75
2023/07/15 10:22:16;;;;;;;2.05;1.60;;;33.10;86.80;;;;;;5054325;28;20044;-75
2023/07/15 10:24:43;;;;;;;2.13;1.60;;;33.10;88.20;;;;;;5053262;28;20071;-77
2023/07/15 10:27:10;;;;;;;2.10;1.60;;;32.80;87.80;;;;;;5054187;28;20051;-78
2023/07/15 10:29:40;;;;;;;2.67;1.60;;;32.90;87.50;;;;;;5036510;28;20064;-76
2023/07/15 10:32:14;;;;;;;3.17;1.63;;;33.20;87.60;;;;;;5036096;28;20102;-76
2023/07/15 10:34:48;;;;;;;4.38;1.88;;;33.30;86.70;;;;;;5053501;28;20489;-77
2023/07/15 10:37:15;;;;;;;3.28;1.50;;;33.20;86.30;;;;;;5036837;28;20088;-76
2023/07/15 10:39:42;;;;;;;5.15;1.88;;;33.00;86.50;;;;;;5053769;28;20052;-73
2023/07/15 10:42:18;;;;;;;10.13;1.70;;;33.00;87.20;;;;;;5053730;28;20084;-76
2023/07/15 10:44:50;;;;;;;4.95;1.95;;;33.00;86.60;;;;;;5036340;28;20091;-76
2023/07/15 10:47:16;;;;;;;;;;;33.20;86.20;;;;;;5054066;28;20052;-75
2023/07/15 10:49:45;;;;;;;2.08;1.30;;;33.30;86.30;;;;;;5036510;28;20315;-76
2023/07/15 10:52:11;;;;;;;1.75;1.40;;;33.30;85.60;;;;;;5035783;28;20041;-74
2023/07/15 10:54:39;;;;;;;3.97;1.70;;;33.00;85.30;;;;;;5035879;28;20049;-76
2023/07/15 10:57:12;;;;;;;3.60;1.83;;;32.60;85.60;;;;;;5053373;28;20049;-77
2023/07/15 10:59:43;;;;;;;1.67;1.40;;;32.00;85.60;;;;;;5053444;28;20049;-78
2023/07/15 11:02:10;;;;;;;2.40;1.63;;;31.40;86.80;;;;;;5053253;28;20061;-76
2023/07/15 11:04:36;;;;;;;3.65;1.70;;;31.00;87.10;;;;;;5053365;28;20429;-74
2023/07/15 11:07:04;;;;;;;2.08;1.42;;;30.80;87.60;;;;;;5036162;28;20057;-76
2023/07/15 11:09:31;;;;;;;2.33;1.58;;;30.80;88.30;;;;;;5053181;28;20052;-76
2023/07/15 11:11:56;;;;;;;3.42;1.52;;;30.80;89.00;;;;;;5053174;28;20106;-74
2023/07/15 11:14:27;;;;;;;3.67;2.17;;;30.70;88.40;;;;;;5052903;28;20041;-78
2023/07/15 11:17:01;;;;;;;3.67;1.42;;;30.50;88.20;;;;;;5053191;28;20052;-75
2023/07/15 11:19:29;;;;;;;3.20;1.40;;;30.40;88.10;;;;;;5053365;28;20049;-75
2023/07/15 11:21:59;;;;;;;4.35;1.40;;;30.50;88.60;;;;;;5053069;28;20049;-76
2023/07/15 11:24:26;;;;;;;3.63;1.80;;;30.70;88.50;;;;;;5035536;28;20049;-76
2023/07/15 11:26:52;;;;;;;5.53;1.90;;;30.40;88.00;;;;;;5052744;28;20049;-76
2023/07/15 11:29:20;;;;;;;3.65;1.90;;;30.10;88.30;;;;;;5053029;28;20057;-75
2023/07/15 11:31:48;;;;;;;1.55;1.40;;;29.90;89.10;;;;;;5052884;28;20124;-74
2023/07/15 11:34:19;;;;;;;1.80;1.40;;;29.70;89.10;;;;;;5035367;28;20055;-80
2023/07/15 11:36:46;;;;;;;2.28;1.27;;;29.70;89.80;;;;;;5034889;28;20045;-77
2023/07/15 11:39:13;;;;;;;2.15;1.50;;;29.50;89.70;;;;;;5053215;28;20101;-76
2023/07/15 11:41:39;;;;;;;4.53;1.83;;;29.50;90.00;;;;;;5054538;28;20136;-74
2023/07/15 11:44:09;;;;;;;2.83;1.77;;;29.40;90.10;;;;;;5054860;28;20057;-76
2023/07/15 11:46:37;;;;;;;3.85;1.65;;;29.40;90.20;;;;;;5054124;28;20124;-75
2023/07/15 11:49:03;;;;;;;2.33;1.52;;;29.40;90.70;;;;;;5053478;28;20045;-78
2023/07/15 11:51:31;;;;;;;4.93;1.60;;;29.40;90.30;;;;;;5052615;28;20128;-80
2023/07/15 11:53:56;;;;;;;3.25;1.70;;;29.30;90.70;;;;;;5053203;28;20053;-75
2023/07/15 11:56:39;;;;;;;4.40;1.60;;;29.40;90.60;;;;;;5052374;28;20079;-74
2023/07/15 11:59:06;;;;;;;;;;;29.30;90.60;;;;;;5053086;28;20075;-77
2023/07/15 12:01:32;;;;;;;2.45;1.50;;;29.10;91.10;;;;;;5052098;28;20308;-77
2023/07/15 12:03:58;;;;;;;3.17;1.90;;;29.00;90.70;;;;;;5035090;28;20079;-75
2023/07/15 12:06:26;;;;;;;3.28;1.60;;;28.90;90.80;;;;;;5052390;28;20048;-75
2023/07/15 12:09:03;;;;;;;2.20;1.60;;;28.90;91.10;;;;;;5034350;28;20045;-76
2023/07/15 12:11:30;;;;;;;3.58;1.85;;;28.80;90.90;;;;;;5052690;28;20044;-78
2023/07/15 12:13:57;;;;;;;3.72;1.90;;;28.70;91.20;;;;;;5034863;28;20053;-74
2023/07/15 12:16:23;;;;;;;2.67;1.73;;;28.70;91.00;;;;;;5052264;28;20458;-75
2023/07/15 12:18:49;;;;;;;4.25;2.30;;;29.00;91.20;;;;;;5052230;28;20045;-75
2023/07/15 12:21:15;;;;;;;9.38;2.70;;;29.30;90.90;;;;;;5052719;28;20045;-78
2023/07/15 12:23:43;;;;;;;3.05;2.30;;;29.40;90.70;;;;;;5052386;28;20376;-74
2023/07/15 12:26:09;;;;;;;4.57;1.80;;;29.40;90.70;;;;;;5051851;28;20507;-72
2023/07/15 12:28:35;;;;;;;4.28;2.22;;;29.40;90.60;;;;;;5034289;28;20052;-74
2023/07/15 12:31:03;;;;;;;2.83;2.20;;;29.50;90.70;;;;;;5034787;28;20045;-75
2023/07/15 12:33:29;;;;;;;4.13;1.50;;;29.60;90.80;;;;;;5034512;28;20045;-77
2023/07/15 12:35:55;;;;;;;3.92;1.70;;;29.70;90.90;;;;;;5052262;28;20057;-77
2023/07/15 12:38:21;;;;;;;3.85;2.13;;;29.70;90.70;;;;;;5052048;28;20482;-78
2023/07/15 12:40:47;;;;;;;3.70;2.05;;;29.80;90.60;;;;;;5034426;28;20053;-77
2023/07/15 12:43:14;;;;;;;5.40;1.88;;;29.60;90.40;;;;;;5034375;28;20040;-76
2023/07/15 12:45:41;;;;;;;3.97;1.83;;;29.60;90.10;;;;;;5051668;28;20526;-74
2023/07/15 12:48:07;;;;;;;4.13;1.92;;;29.70;90.40;;;;;;5035726;28;20495;-76